createdAt,value
2018-04-22T00:00:28.085Z,16.40
2018-04-22T00:01:28.043Z,18.00
2018-04-22T00:02:28.008Z,15.30
2018-04-22T00:03:27.963Z,17.70
2018-04-22T00:04:27.925Z,16.30
2018-04-22T00:05:27.880Z,16.30
2018-04-22T00:06:27.849Z,18.40
2018-04-22T00:07:27.801Z,17.20
2018-04-22T00:08:27.758Z,17.00
2018-04-22T00:09:27.719Z,18.00
2018-04-22T00:10:27.680Z,15.40
2018-04-22T00:11:27.638Z,15.90
2018-04-22T00:12:27.618Z,19.60
2018-04-22T00:13:27.555Z,19.90
2018-04-22T00:14:27.533Z,18.70
2018-04-22T00:15:27.482Z,19.00
2018-04-22T00:16:27.436Z,15.40
2018-04-22T00:17:27.393Z,20.50
2018-04-22T00:18:27.353Z,20.00
2018-04-22T00:19:27.310Z,14.90
2018-04-22T00:20:27.274Z,17.40
2018-04-22T00:21:27.229Z,16.00
2018-04-22T00:22:27.196Z,17.70
2018-04-22T00:23:27.149Z,18.70
2018-04-22T00:24:27.108Z,17.60
2018-04-22T00:25:27.065Z,17.30
2018-04-22T00:26:27.026Z,17.10
2018-04-22T00:27:26.986Z,18.60
2018-04-22T00:28:26.944Z,16.60
2018-04-22T00:29:26.903Z,17.70
2018-04-22T00:30:26.861Z,17.90
2018-04-22T00:31:26.820Z,15.30
2018-04-22T00:32:26.780Z,16.50
2018-04-22T00:33:26.741Z,16.60
2018-04-22T00:34:26.707Z,16.50
2018-04-22T00:35:26.660Z,17.20
2018-04-22T00:36:26.618Z,18.60
2018-04-22T00:37:26.579Z,15.70
2018-04-22T00:38:26.538Z,15.10
2018-04-22T00:39:26.520Z,16.40
2018-04-22T00:40:26.463Z,15.40
2018-04-22T00:41:26.413Z,15.40
2018-04-22T00:42:26.372Z,15.60
2018-04-22T00:43:26.348Z,14.90
2018-04-22T00:44:26.291Z,17.30
2018-04-22T00:45:26.249Z,18.20
2018-04-22T00:46:26.208Z,16.10
2018-04-22T00:47:26.178Z,16.60
2018-04-22T00:48:26.128Z,16.70
2018-04-22T00:49:26.090Z,16.00
2018-04-22T00:50:26.047Z,17.20
2018-04-22T00:51:26.009Z,17.30
2018-04-22T00:52:25.965Z,16.60
2018-04-22T00:53:25.927Z,16.20
2018-04-22T00:54:25.886Z,18.20
2018-04-22T00:55:25.840Z,15.80
2018-04-22T00:56:25.803Z,20.60
2018-04-22T00:57:25.765Z,17.50
2018-04-22T00:58:25.719Z,17.00
2018-04-22T00:59:25.678Z,17.30
2018-04-22T01:00:25.637Z,17.10
2018-04-22T01:01:25.600Z,15.80
2018-04-22T01:02:25.556Z,16.10
2018-04-22T01:03:25.513Z,17.60
2018-04-22T01:04:25.473Z,16.00
2018-04-22T01:05:25.433Z,18.40
2018-04-22T01:06:25.390Z,16.40
2018-04-22T01:07:25.349Z,16.80
2018-04-22T01:08:25.332Z,16.80
2018-04-22T01:09:25.267Z,16.50
2018-04-22T01:10:25.232Z,18.30
2018-04-22T01:11:25.189Z,18.40
2018-04-22T01:12:25.146Z,17.00
2018-04-22T01:13:25.104Z,16.50
2018-04-22T01:14:25.062Z,16.60
2018-04-22T01:15:25.024Z,17.20
2018-04-22T01:16:25.031Z,18.90
2018-04-22T01:17:24.940Z,17.30
2018-04-22T01:18:24.924Z,16.80
2018-04-22T01:19:24.856Z,16.20
2018-04-22T01:20:24.829Z,17.80
2018-04-22T01:21:24.777Z,18.60
2018-04-22T01:22:24.735Z,17.70
2018-04-22T01:23:24.698Z,18.00
2018-04-22T01:24:24.655Z,16.20
2018-04-22T01:25:24.614Z,16.30
2018-04-22T01:26:24.574Z,18.30
2018-04-22T01:27:24.544Z,17.30
2018-04-22T01:28:24.498Z,16.30
2018-04-22T01:29:24.449Z,16.30
2018-04-22T01:30:24.411Z,18.80
2018-04-22T01:31:24.368Z,17.70
2018-04-22T01:32:24.327Z,18.50
2018-04-22T01:33:24.290Z,18.00
2018-04-22T01:34:24.251Z,16.30
2018-04-22T01:35:24.204Z,17.60
2018-04-22T01:36:24.165Z,17.00
2018-04-22T01:37:24.123Z,19.90
2018-04-22T01:38:24.080Z,16.70
2018-04-22T01:39:24.041Z,17.20
2018-04-22T01:40:24.060Z,17.70
2018-04-22T01:41:23.956Z,20.70
2018-04-22T01:42:23.922Z,17.00
2018-04-22T01:43:23.876Z,16.40
2018-04-22T01:44:23.835Z,16.90
2018-04-22T01:45:23.803Z,17.50
2018-04-22T01:46:23.753Z,19.80
2018-04-22T01:47:23.711Z,17.20
2018-04-22T01:48:23.673Z,18.90
2018-04-22T01:49:23.629Z,19.20
2018-04-22T01:50:23.588Z,17.20
2018-04-22T01:51:23.547Z,17.90
2018-04-22T01:52:23.504Z,19.60
2018-04-22T01:53:23.463Z,17.80
2018-04-22T01:54:23.423Z,17.20
2018-04-22T01:55:23.380Z,16.90
2018-04-22T01:56:23.342Z,16.70
2018-04-22T01:57:23.301Z,17.10
2018-04-22T01:58:23.258Z,17.80
2018-04-22T01:59:23.216Z,18.60
2018-04-22T02:00:23.174Z,17.60
2018-04-22T02:01:23.131Z,17.30
2018-04-22T02:02:23.092Z,17.50
2018-04-22T02:03:23.051Z,17.80
2018-04-22T02:04:23.007Z,17.50
2018-04-22T02:05:22.966Z,18.00
2018-04-22T02:06:22.925Z,17.60
2018-04-22T02:07:22.888Z,17.50
2018-04-22T02:08:22.843Z,17.70
2018-04-22T02:09:22.802Z,17.90
2018-04-22T02:10:22.760Z,17.70
2018-04-22T02:11:22.720Z,20.20
2018-04-22T02:12:22.678Z,16.70
2018-04-22T02:13:22.636Z,17.30
2018-04-22T02:14:22.594Z,17.00
2018-04-22T02:15:22.553Z,17.60
2018-04-22T02:16:22.515Z,19.50
2018-04-22T02:17:22.469Z,17.70
2018-04-22T02:18:22.432Z,17.20
2018-04-22T02:19:22.388Z,17.30
2018-04-22T02:20:22.346Z,17.90
2018-04-22T02:21:22.305Z,17.10
2018-04-22T02:22:22.264Z,18.30
2018-04-22T02:23:22.224Z,16.40
2018-04-22T02:24:22.181Z,17.50
2018-04-22T02:25:22.139Z,17.90
2018-04-22T02:26:22.098Z,17.80
2018-04-22T02:27:22.058Z,17.80
2018-04-22T02:28:22.018Z,17.20
2018-04-22T02:29:21.976Z,16.90
2018-04-22T02:30:21.934Z,18.80
2018-04-22T02:31:21.895Z,16.60
2018-04-22T02:32:21.853Z,20.00
2018-04-22T02:33:21.810Z,20.10
2018-04-22T02:34:21.768Z,18.80
2018-04-22T02:35:21.726Z,19.00
2018-04-22T02:36:21.685Z,17.30
2018-04-22T02:37:21.647Z,17.60
2018-04-22T02:38:21.606Z,19.40
2018-04-22T02:39:21.561Z,18.60
2018-04-22T02:40:21.520Z,17.00
2018-04-22T02:41:21.477Z,17.00
2018-04-22T02:42:21.437Z,17.80
2018-04-22T02:43:21.395Z,16.40
2018-04-22T02:44:21.355Z,17.60
2018-04-22T02:45:21.313Z,17.60
2018-04-22T02:46:21.273Z,16.60
2018-04-22T02:47:21.229Z,17.80
2018-04-22T02:48:21.188Z,16.60
2018-04-22T02:49:21.146Z,17.50
2018-04-22T02:50:21.105Z,17.10
2018-04-22T02:51:21.067Z,17.30
2018-04-22T02:52:21.027Z,18.60
2018-04-22T02:53:20.982Z,16.40
2018-04-22T02:54:20.942Z,16.80
2018-04-22T02:55:20.897Z,16.80
2018-04-22T02:56:20.857Z,17.20
2018-04-22T02:57:20.816Z,18.70
2018-04-22T02:58:20.775Z,17.20
2018-04-22T02:59:20.731Z,19.50
2018-04-22T03:00:20.690Z,17.20
2018-04-22T03:01:20.650Z,17.90
2018-04-22T03:02:20.608Z,16.90
2018-04-22T03:03:20.571Z,16.70
2018-04-22T03:04:20.527Z,17.20
2018-04-22T03:05:20.483Z,17.20
2018-04-22T03:06:20.444Z,17.40
2018-04-22T03:07:20.401Z,17.10
2018-04-22T03:08:20.362Z,17.80
2018-04-22T03:09:20.315Z,18.50
2018-04-22T03:10:20.275Z,22.00
2018-04-22T03:11:20.234Z,18.50
2018-04-22T03:12:20.195Z,18.30
2018-04-22T03:13:20.151Z,17.30
2018-04-22T03:14:20.110Z,17.80
2018-04-22T03:15:20.071Z,17.70
2018-04-22T03:16:20.029Z,18.20
2018-04-22T03:17:19.982Z,21.80
2018-04-22T03:18:19.942Z,18.70
2018-04-22T03:19:19.902Z,18.20
2018-04-22T03:20:19.860Z,20.30
2018-04-22T03:21:19.819Z,19.90
2018-04-22T03:22:19.810Z,17.30
2018-04-22T03:23:19.735Z,18.20
2018-04-22T03:24:19.694Z,20.10
2018-04-22T03:25:19.656Z,19.20
2018-04-22T03:26:19.612Z,17.50
2018-04-22T03:27:19.575Z,18.50
2018-04-22T03:28:19.530Z,18.60
2018-04-22T03:29:19.485Z,17.50
2018-04-22T03:30:19.445Z,20.70
2018-04-22T03:31:19.410Z,18.80
2018-04-22T03:32:19.359Z,18.30
2018-04-22T03:33:19.319Z,18.40
2018-04-22T03:34:19.279Z,18.30
2018-04-22T03:35:19.239Z,16.90
2018-04-22T03:36:19.195Z,19.50
2018-04-22T03:37:19.152Z,17.50
2018-04-22T03:38:19.114Z,18.80
2018-04-22T03:39:19.071Z,18.80
2018-04-22T03:40:19.030Z,19.30
2018-04-22T03:41:18.985Z,20.40
2018-04-22T03:42:18.951Z,18.60
2018-04-22T03:43:18.910Z,18.30
2018-04-22T03:44:18.869Z,20.60
2018-04-22T03:45:18.820Z,21.10
2018-04-22T03:46:18.780Z,19.60
2018-04-22T03:47:18.746Z,18.90
2018-04-22T03:48:18.696Z,19.90
2018-04-22T03:49:18.659Z,21.70
2018-04-22T03:50:18.621Z,18.70
2018-04-22T03:51:18.572Z,18.90
2018-04-22T03:52:18.530Z,20.40
2018-04-22T03:53:18.494Z,21.40
2018-04-22T03:54:18.452Z,19.00
2018-04-22T03:55:18.405Z,19.10
2018-04-22T03:56:18.365Z,19.10
2018-04-22T03:57:18.321Z,19.70
2018-04-22T03:58:18.286Z,19.80
2018-04-22T03:59:18.237Z,18.40
2018-04-22T04:00:18.196Z,19.80
2018-04-22T04:01:18.156Z,19.90
2018-04-22T04:02:18.112Z,19.30
2018-04-22T04:03:18.070Z,19.00
2018-04-22T04:04:18.035Z,19.60
2018-04-22T04:05:17.987Z,20.40
2018-04-22T04:06:17.947Z,19.50
2018-04-22T04:07:17.903Z,19.40
2018-04-22T04:08:17.863Z,20.00
2018-04-22T04:09:17.822Z,19.70
2018-04-22T04:10:17.782Z,20.80
2018-04-22T04:11:17.736Z,19.60
2018-04-22T04:12:17.696Z,19.60
2018-04-22T04:13:17.657Z,20.00
2018-04-22T04:14:17.614Z,18.90
2018-04-22T04:15:17.570Z,19.20
2018-04-22T04:16:17.527Z,20.90
2018-04-22T04:17:17.486Z,18.80
2018-04-22T04:18:17.445Z,20.10
2018-04-22T04:19:17.468Z,19.20
2018-04-22T04:20:17.365Z,20.40
2018-04-22T04:21:17.322Z,19.00
2018-04-22T04:22:17.277Z,21.80
2018-04-22T04:23:17.235Z,20.20
2018-04-22T04:24:17.196Z,19.90
2018-04-22T04:25:17.154Z,20.20
2018-04-22T04:26:17.113Z,19.40
2018-04-22T04:27:17.069Z,19.70
2018-04-22T04:28:17.028Z,20.00
2018-04-22T04:29:16.984Z,19.60
2018-04-22T04:30:16.945Z,20.00
2018-04-22T04:31:16.903Z,19.30
2018-04-22T04:32:16.863Z,19.40
2018-04-22T04:33:16.819Z,20.00
2018-04-22T04:34:16.778Z,19.90
2018-04-22T04:35:16.734Z,19.70
2018-04-22T04:36:16.696Z,19.50
2018-04-22T04:37:16.657Z,21.00
2018-04-22T04:38:16.621Z,20.10
2018-04-22T04:39:16.568Z,20.10
2018-04-22T04:40:16.528Z,19.50
2018-04-22T04:41:16.483Z,20.20
2018-04-22T04:42:16.444Z,22.60
2018-04-22T04:43:16.404Z,19.60
2018-04-22T04:44:16.360Z,20.30
2018-04-22T04:45:16.314Z,21.90
2018-04-22T04:46:16.274Z,19.80
2018-04-22T04:47:16.237Z,20.80
2018-04-22T04:48:16.193Z,19.40
2018-04-22T04:49:16.151Z,20.50
2018-04-22T04:50:16.110Z,19.80
2018-04-22T04:51:16.069Z,19.90
2018-04-22T04:52:16.028Z,21.30
2018-04-22T04:53:15.979Z,19.30
2018-04-22T04:54:15.941Z,22.90
2018-04-22T04:55:15.901Z,21.00
2018-04-22T04:56:15.862Z,21.50
2018-04-22T04:57:15.816Z,24.10
2018-04-22T04:58:15.773Z,20.30
2018-04-22T04:59:15.731Z,21.00
2018-04-22T05:00:15.696Z,20.60
2018-04-22T05:01:15.652Z,20.60
2018-04-22T05:02:15.604Z,21.30
2018-04-22T05:03:15.562Z,21.60
2018-04-22T05:04:15.524Z,21.20
2018-04-22T05:05:15.478Z,21.40
2018-04-22T05:06:15.448Z,21.50
2018-04-22T05:07:15.399Z,21.30
2018-04-22T05:08:15.354Z,20.60
2018-04-22T05:09:15.317Z,20.80
2018-04-22T05:10:15.273Z,21.40
2018-04-22T05:11:15.231Z,20.90
2018-04-22T05:12:15.189Z,24.60
2018-04-22T05:13:15.148Z,22.10
2018-04-22T05:14:15.104Z,20.50
2018-04-22T05:15:15.066Z,20.30
2018-04-22T05:16:15.022Z,21.00
2018-04-22T05:17:14.981Z,21.00
2018-04-22T05:18:14.938Z,20.50
2018-04-22T05:19:14.897Z,20.30
2018-04-22T05:20:14.851Z,20.50
2018-04-22T05:21:14.820Z,20.40
2018-04-22T05:22:14.769Z,21.50
2018-04-22T05:23:14.728Z,20.20
2018-04-22T05:24:14.689Z,21.00
2018-04-22T05:25:14.644Z,22.50
2018-04-22T05:26:14.601Z,21.60
2018-04-22T05:27:14.567Z,20.80
2018-04-22T05:28:14.519Z,21.40
2018-04-22T05:29:14.480Z,21.10
2018-04-22T05:30:14.436Z,23.50
2018-04-22T05:31:14.409Z,21.90
2018-04-22T05:32:14.353Z,22.10
2018-04-22T05:33:14.309Z,22.40
2018-04-22T05:34:14.268Z,21.20
2018-04-22T05:35:14.226Z,23.60
2018-04-22T05:36:14.182Z,22.20
2018-04-22T05:37:14.143Z,22.00
2018-04-22T05:38:14.104Z,21.80
2018-04-22T05:39:14.062Z,23.10
2018-04-22T05:40:14.016Z,21.70
2018-04-22T05:41:13.975Z,22.30
2018-04-22T05:42:13.934Z,22.50
2018-04-22T05:43:13.892Z,23.40
2018-04-22T05:44:13.858Z,22.80
2018-04-22T05:45:13.808Z,22.90
2018-04-22T05:46:13.765Z,21.20
2018-04-22T05:47:13.728Z,23.00
2018-04-22T05:48:13.683Z,22.70
2018-04-22T05:49:13.641Z,22.50
2018-04-22T05:50:13.598Z,23.60
2018-04-22T05:51:13.558Z,24.00
2018-04-22T05:52:13.514Z,23.70
2018-04-22T05:53:13.476Z,22.40
2018-04-22T05:54:13.436Z,22.10
2018-04-22T05:55:13.395Z,22.60
2018-04-22T05:56:13.353Z,22.20
2018-04-22T05:57:13.306Z,23.40
2018-04-22T05:58:13.266Z,22.30
2018-04-22T05:59:13.225Z,23.10
2018-04-22T06:00:13.188Z,23.40
2018-04-22T06:01:13.142Z,24.00
2018-04-22T06:02:13.142Z,23.70
2018-04-22T06:03:13.057Z,25.40
2018-04-22T06:04:13.018Z,23.70
2018-04-22T06:05:12.976Z,25.10
2018-04-22T06:06:12.936Z,22.90
2018-04-22T06:07:12.897Z,24.50
2018-04-22T06:08:12.857Z,23.30
2018-04-22T06:09:12.811Z,25.00
2018-04-22T06:10:12.766Z,24.10
2018-04-22T06:11:12.730Z,24.50
2018-04-22T06:12:12.686Z,23.10
2018-04-22T06:13:12.641Z,24.30
2018-04-22T06:14:12.604Z,23.30
2018-04-22T06:15:12.560Z,22.60
2018-04-22T06:16:12.518Z,24.90
2018-04-22T06:17:12.490Z,24.30
2018-04-22T06:18:12.438Z,23.20
2018-04-22T06:19:12.398Z,23.60
2018-04-22T06:20:12.361Z,23.10
2018-04-22T06:21:12.310Z,23.20
2018-04-22T06:22:12.269Z,23.00
2018-04-22T06:23:12.228Z,23.10
2018-04-22T06:24:12.188Z,23.10
2018-04-22T06:25:12.148Z,22.90
2018-04-22T06:26:12.103Z,23.90
2018-04-22T06:27:12.067Z,24.30
2018-04-22T06:28:12.028Z,26.40
2018-04-22T06:29:11.978Z,25.20
2018-04-22T06:30:11.942Z,26.20
2018-04-22T06:31:11.896Z,23.60
2018-04-22T06:32:11.857Z,22.50
2018-04-22T06:33:11.823Z,22.50
2018-04-22T06:34:11.773Z,23.80
2018-04-22T06:35:11.738Z,23.10
2018-04-22T06:36:11.692Z,23.30
2018-04-22T06:37:11.648Z,24.00
2018-04-22T06:38:11.609Z,23.20
2018-04-22T06:39:11.568Z,23.80
2018-04-22T06:40:11.569Z,23.70
2018-04-22T06:41:11.486Z,24.10
2018-04-22T06:42:11.448Z,24.40
2018-04-22T06:43:11.407Z,25.30
2018-04-22T06:44:11.368Z,24.10
2018-04-22T06:45:11.324Z,24.20
2018-04-22T06:46:11.329Z,25.10
2018-04-22T06:47:11.240Z,23.50
2018-04-22T06:48:11.200Z,24.10
2018-04-22T06:49:11.161Z,23.90
2018-04-22T06:50:11.121Z,22.80
2018-04-22T06:51:11.078Z,24.40
2018-04-22T06:52:11.040Z,23.20
2018-04-22T06:53:10.996Z,25.50
2018-04-22T06:54:10.959Z,26.20
2018-04-22T06:55:10.914Z,23.80
2018-04-22T06:56:10.875Z,23.10
2018-04-22T06:57:10.834Z,23.80
2018-04-22T06:58:10.793Z,23.70
2018-04-22T06:59:10.751Z,23.00
2018-04-22T07:00:10.711Z,24.90
2018-04-22T07:01:10.671Z,22.60
2018-04-22T07:02:10.638Z,22.40
2018-04-22T07:03:10.589Z,23.30
2018-04-22T07:04:10.547Z,23.10
2018-04-22T07:05:10.506Z,22.40
2018-04-22T07:06:10.467Z,23.50
2018-04-22T07:07:10.427Z,22.90
2018-04-22T07:08:10.389Z,22.60
2018-04-22T07:09:10.346Z,22.20
2018-04-22T07:10:10.306Z,22.90
2018-04-22T07:11:10.267Z,22.20
2018-04-22T07:12:10.228Z,25.30
2018-04-22T07:13:10.184Z,22.60
2018-04-22T07:14:10.143Z,21.80
2018-04-22T07:15:10.104Z,22.50
2018-04-22T07:16:10.062Z,21.80
2018-04-22T07:17:10.023Z,22.30
2018-04-22T07:18:09.992Z,22.50
2018-04-22T07:19:09.953Z,22.50
2018-04-22T07:20:09.908Z,22.70
2018-04-22T07:21:09.867Z,22.10
2018-04-22T07:22:09.825Z,22.00
2018-04-22T07:23:09.787Z,23.00
2018-04-22T07:24:09.794Z,22.60
2018-04-22T07:25:09.704Z,22.50
2018-04-22T07:26:09.666Z,23.40
2018-04-22T07:27:09.630Z,23.60
2018-04-22T07:28:09.588Z,22.50
2018-04-22T07:29:09.541Z,23.60
2018-04-22T07:30:09.503Z,22.70
2018-04-22T07:31:09.462Z,24.00
2018-04-22T07:32:09.443Z,23.80
2018-04-22T07:33:09.382Z,22.70
2018-04-22T07:34:09.345Z,22.90
2018-04-22T07:35:09.308Z,22.30
2018-04-22T07:36:09.262Z,22.20
2018-04-22T07:37:09.222Z,22.60
2018-04-22T07:38:09.185Z,21.80
2018-04-22T07:39:09.148Z,23.00
2018-04-22T07:40:09.110Z,23.00
2018-04-22T07:41:09.070Z,21.30
2018-04-22T07:42:09.025Z,23.50
2018-04-22T07:43:08.992Z,22.80
2018-04-22T07:44:08.958Z,23.00
2018-04-22T07:45:08.906Z,21.60
2018-04-22T07:46:08.868Z,22.20
2018-04-22T07:47:08.829Z,21.50
2018-04-22T07:48:08.795Z,22.00
2018-04-22T07:49:08.750Z,21.90
2018-04-22T07:50:08.709Z,21.40
2018-04-22T07:51:08.675Z,25.70
2018-04-22T07:52:08.637Z,20.80
2018-04-22T07:53:08.592Z,21.80
2018-04-22T07:54:08.556Z,22.30
2018-04-22T07:55:08.513Z,20.90
2018-04-22T07:56:08.479Z,21.80
2018-04-22T07:57:08.436Z,22.40
2018-04-22T07:58:08.394Z,21.20
2018-04-22T07:59:08.357Z,21.10
2018-04-22T08:00:10.968Z,20.60
2018-04-22T08:01:08.277Z,22.40
2018-04-22T08:02:08.240Z,20.80
2018-04-22T08:03:08.198Z,20.60
2018-04-22T08:04:08.162Z,20.90
2018-04-22T08:05:08.124Z,19.50
2018-04-22T08:06:08.084Z,20.60
2018-04-22T08:07:08.046Z,20.30
2018-04-22T08:08:08.006Z,21.10
2018-04-22T08:09:07.966Z,19.80
2018-04-22T08:10:07.929Z,19.50
2018-04-22T08:11:07.890Z,19.10
2018-04-22T08:12:07.854Z,19.80
2018-04-22T08:13:07.811Z,17.90
2018-04-22T08:14:07.774Z,17.90
2018-04-22T08:15:07.736Z,17.60
2018-04-22T08:16:07.697Z,16.80
2018-04-22T08:17:07.657Z,17.50
2018-04-22T08:18:07.620Z,18.40
2018-04-22T08:19:07.583Z,17.60
2018-04-22T08:20:07.565Z,17.90
2018-04-22T08:21:07.505Z,16.80
2018-04-22T08:22:07.468Z,16.00
2018-04-22T08:23:07.437Z,17.20
2018-04-22T08:24:07.395Z,15.70
2018-04-22T08:25:07.353Z,20.40
2018-04-22T08:26:07.319Z,16.10
2018-04-22T08:27:07.291Z,16.60
2018-04-22T08:28:07.265Z,16.30
2018-04-22T08:29:07.207Z,15.60
2018-04-22T08:30:07.169Z,18.40
2018-04-22T08:31:07.127Z,19.60
2018-04-22T08:32:07.089Z,16.00
2018-04-22T08:33:07.056Z,18.30
2018-04-22T08:34:07.015Z,14.90
2018-04-22T08:35:06.979Z,14.90
2018-04-22T08:36:06.947Z,15.10
2018-04-22T08:37:06.899Z,17.80
2018-04-22T08:38:06.865Z,14.60
2018-04-22T08:39:06.829Z,15.70
2018-04-22T08:40:06.791Z,15.20
2018-04-22T08:41:06.748Z,16.80
2018-04-22T08:42:06.714Z,15.00
2018-04-22T08:43:06.676Z,14.80
2018-04-22T08:44:06.640Z,14.10
2018-04-22T08:45:06.600Z,13.50
2018-04-22T08:46:06.567Z,16.70
2018-04-22T08:47:06.525Z,14.50
2018-04-22T08:48:06.498Z,14.90
2018-04-22T08:49:06.455Z,17.60
2018-04-22T08:50:06.416Z,15.20
2018-04-22T08:51:06.386Z,15.00
2018-04-22T08:52:06.341Z,14.90
2018-04-22T08:53:06.308Z,15.90
2018-04-22T08:54:06.272Z,16.20
2018-04-22T08:55:06.238Z,14.10
2018-04-22T08:56:06.196Z,15.20
2018-04-22T08:57:06.161Z,17.70
2018-04-22T08:58:06.122Z,14.40
2018-04-22T08:59:06.085Z,18.40
2018-04-22T09:00:06.050Z,15.80
2018-04-22T09:01:06.033Z,18.40
2018-04-22T09:02:06.028Z,16.60
2018-04-22T09:03:05.944Z,18.70
2018-04-22T09:04:05.904Z,18.30
2018-04-22T09:05:05.865Z,15.40
2018-04-22T09:06:05.893Z,15.00
2018-04-22T09:07:05.797Z,14.90
2018-04-22T09:08:05.759Z,15.60
2018-04-22T09:09:05.729Z,16.10
2018-04-22T09:10:05.688Z,14.10
2018-04-22T09:11:05.651Z,15.20
2018-04-22T09:12:05.610Z,16.30
2018-04-22T09:13:05.576Z,15.90
2018-04-22T09:14:05.543Z,17.00
2018-04-22T09:15:05.504Z,16.70
2018-04-22T09:16:05.467Z,16.10
2018-04-22T09:17:05.432Z,13.80
2018-04-22T09:18:05.395Z,12.80
2018-04-22T09:19:05.364Z,15.00
2018-04-22T09:20:05.324Z,16.70
2018-04-22T09:21:05.290Z,15.30
2018-04-22T09:22:05.258Z,15.70
2018-04-22T09:23:05.215Z,17.00
2018-04-22T09:24:05.180Z,15.80
2018-04-22T09:25:05.149Z,14.40
2018-04-22T09:26:05.137Z,18.70
2018-04-22T09:27:05.074Z,16.50
2018-04-22T09:28:05.043Z,15.80
2018-04-22T09:29:05.003Z,18.20
2018-04-22T09:30:04.970Z,14.40
2018-04-22T09:31:04.932Z,18.30
2018-04-22T09:32:04.897Z,15.00
2018-04-22T09:33:04.878Z,15.60
2018-04-22T09:34:04.827Z,15.00
2018-04-22T09:35:04.793Z,14.80
2018-04-22T09:36:04.790Z,16.00
2018-04-22T09:37:04.720Z,16.50
2018-04-22T09:38:04.683Z,14.90
2018-04-22T09:39:04.655Z,16.10
2018-04-22T09:40:04.617Z,21.30
2018-04-22T09:41:04.581Z,19.00
2018-04-22T09:42:04.547Z,14.80
2018-04-22T09:43:04.516Z,15.60
2018-04-22T09:44:04.478Z,16.80
2018-04-22T09:45:04.448Z,15.00
2018-04-22T09:46:04.407Z,16.40
2018-04-22T09:47:04.373Z,15.30
2018-04-22T09:48:04.338Z,15.50
2018-04-22T09:49:04.307Z,18.30
2018-04-22T09:50:04.271Z,15.70
2018-04-22T09:51:04.235Z,13.70
2018-04-22T09:52:04.201Z,14.50
2018-04-22T09:53:04.165Z,14.20
2018-04-22T09:54:04.130Z,14.90
2018-04-22T09:55:04.098Z,13.30
2018-04-22T09:56:04.065Z,15.50
2018-04-22T09:57:04.032Z,12.70
2018-04-22T09:58:03.995Z,16.70
2018-04-22T09:59:03.962Z,15.20
2018-04-22T10:00:03.933Z,15.00
2018-04-22T10:01:03.892Z,15.10
2018-04-22T10:02:03.858Z,20.30
2018-04-22T10:03:03.827Z,14.60
2018-04-22T10:04:03.798Z,15.20
2018-04-22T10:05:03.764Z,16.80
2018-04-22T10:06:03.722Z,13.40
2018-04-22T10:07:03.689Z,14.30
2018-04-22T10:08:03.655Z,15.50
2018-04-22T10:09:03.623Z,17.90
2018-04-22T10:10:03.590Z,15.30
2018-04-22T10:11:03.557Z,15.50
2018-04-22T10:12:03.525Z,16.70
2018-04-22T10:13:03.495Z,15.10
2018-04-22T10:14:03.454Z,15.90
2018-04-22T10:15:03.421Z,14.30
2018-04-22T10:16:03.393Z,16.10
2018-04-22T10:17:03.357Z,14.70
2018-04-22T10:18:03.319Z,14.70
2018-04-22T10:19:03.287Z,13.00
2018-04-22T10:20:03.279Z,15.90
2018-04-22T10:21:03.219Z,13.10
2018-04-22T10:22:03.186Z,12.00
2018-04-22T10:23:03.158Z,11.80
2018-04-22T10:24:03.124Z,14.50
2018-04-22T10:25:03.087Z,55.40
2018-04-22T10:26:03.064Z,33.00
2018-04-22T10:27:03.020Z,20.90
2018-04-22T10:28:02.994Z,92.40
2018-04-22T10:29:02.960Z,25.10
2018-04-22T10:30:02.922Z,15.60
2018-04-22T10:31:02.888Z,19.60
2018-04-22T10:32:02.856Z,16.40
2018-04-22T10:33:02.823Z,17.90
2018-04-22T10:34:02.789Z,17.80
2018-04-22T10:35:02.758Z,20.60
2018-04-22T10:36:02.755Z,15.90
2018-04-22T10:37:02.691Z,14.50
2018-04-22T10:38:02.653Z,13.20
2018-04-22T10:39:02.622Z,13.60
2018-04-22T10:40:02.623Z,14.60
2018-04-22T10:41:02.559Z,15.80
2018-04-22T10:42:02.550Z,16.10
2018-04-22T10:43:02.493Z,13.30
2018-04-22T10:44:02.461Z,13.50
2018-04-22T10:45:02.424Z,14.30
2018-04-22T10:46:02.393Z,13.90
2018-04-22T10:47:02.361Z,15.60
2018-04-22T10:48:02.326Z,12.70
2018-04-22T10:49:02.301Z,16.50
2018-04-22T10:50:02.254Z,13.20
2018-04-22T10:51:02.226Z,14.50
2018-04-22T10:52:02.193Z,15.40
2018-04-22T10:53:02.159Z,13.70
2018-04-22T10:54:02.127Z,12.30
2018-04-22T10:55:02.090Z,12.00
2018-04-22T10:56:02.063Z,11.30
2018-04-22T10:57:02.023Z,15.10
2018-04-22T10:58:02.087Z,13.70
2018-04-22T10:59:01.960Z,14.20
2018-04-22T11:00:01.931Z,12.50
2018-04-22T11:01:01.896Z,13.50
2018-04-22T11:02:01.924Z,15.10
2018-04-22T11:03:01.833Z,12.00
2018-04-22T11:04:01.793Z,12.90
2018-04-22T11:05:01.769Z,11.80
2018-04-22T11:06:01.732Z,13.50
2018-04-22T11:07:01.698Z,12.40
2018-04-22T11:08:01.667Z,12.20
2018-04-22T11:09:01.631Z,11.40
2018-04-22T11:10:01.606Z,13.40
2018-04-22T11:11:01.566Z,10.50
2018-04-22T11:12:01.534Z,14.80
2018-04-22T11:13:01.501Z,13.50
2018-04-22T11:14:01.465Z,18.90
2018-04-22T11:15:01.441Z,17.30
2018-04-22T11:16:01.402Z,15.90
2018-04-22T11:17:01.370Z,18.00
2018-04-22T11:18:01.337Z,11.70
2018-04-22T11:19:01.308Z,12.90
2018-04-22T11:20:01.280Z,13.00
2018-04-22T11:21:01.236Z,15.30
2018-04-22T11:22:01.274Z,10.00
2018-04-22T11:23:01.173Z,13.50
2018-04-22T11:24:01.140Z,16.60
2018-04-22T11:25:01.111Z,11.20
2018-04-22T11:26:01.083Z,11.70
2018-04-22T11:27:01.067Z,11.20
2018-04-22T11:29:00.979Z,13.20
2018-04-22T11:30:00.948Z,13.00
2018-04-22T11:31:00.914Z,12.40
2018-04-22T11:32:00.882Z,13.20
2018-04-22T11:33:00.853Z,16.60
2018-04-22T11:34:00.817Z,13.60
2018-04-22T11:35:00.788Z,11.20
2018-04-22T11:36:00.756Z,11.50
2018-04-22T11:37:00.720Z,16.80
2018-04-22T11:38:00.688Z,11.40
2018-04-22T11:39:00.749Z,14.70
2018-04-22T11:40:00.626Z,11.40
2018-04-22T11:41:00.591Z,10.10
2018-04-22T11:42:00.624Z,10.60
2018-04-22T11:43:00.551Z,11.70
2018-04-22T11:44:00.496Z,10.30
2018-04-22T11:45:00.465Z,12.70
2018-04-22T11:46:00.456Z,12.50
2018-04-22T11:47:00.402Z,12.80
2018-04-22T11:48:00.374Z,10.30
2018-04-22T11:49:00.339Z,13.40
2018-04-22T11:50:00.316Z,11.30
2018-04-22T11:51:00.290Z,13.60
2018-04-22T11:52:00.255Z,11.00
2018-04-22T11:53:00.216Z,10.00
2018-04-22T11:54:00.195Z,12.10
2018-04-22T11:55:00.155Z,10.60
2018-04-22T11:56:00.125Z,14.80
2018-04-22T11:57:00.095Z,12.90
2018-04-22T11:58:00.068Z,12.40
2018-04-22T11:59:00.037Z,10.70
2018-04-22T12:00:00.059Z,11.50
2018-04-22T12:00:59.990Z,11.30
2018-04-22T12:01:59.955Z,15.60
2018-04-22T12:02:59.910Z,11.20
2018-04-22T12:03:59.885Z,9.70
2018-04-22T12:04:59.899Z,11.00
2018-04-22T12:05:59.855Z,10.50
2018-04-22T12:06:59.904Z,11.00
2018-04-22T12:07:59.760Z,11.90
2018-04-22T12:08:59.729Z,10.50
2018-04-22T12:09:59.701Z,9.70
2018-04-22T12:10:59.667Z,9.80
2018-04-22T12:11:59.651Z,9.40
2018-04-22T12:12:59.611Z,8.50
2018-04-22T12:13:59.577Z,9.90
2018-04-22T12:14:59.549Z,9.50
2018-04-22T12:15:59.533Z,10.60
2018-04-22T12:16:59.488Z,8.60
2018-04-22T12:17:59.469Z,9.30
2018-04-22T12:18:59.452Z,10.10
2018-04-22T12:19:59.400Z,13.20
2018-04-22T12:20:59.380Z,8.70
2018-04-22T12:21:59.340Z,11.20
2018-04-22T12:22:59.349Z,10.00
2018-04-22T12:23:59.300Z,10.20
2018-04-22T12:24:59.252Z,11.50
2018-04-22T12:26:59.195Z,7.80
2018-04-22T12:28:59.132Z,10.30
2018-04-22T12:29:59.107Z,7.50
2018-04-22T12:30:59.075Z,8.80
2018-04-22T12:31:59.044Z,11.10
2018-04-22T12:32:59.015Z,10.00
2018-04-22T12:33:58.984Z,11.50
2018-04-22T12:34:58.954Z,11.50
2018-04-22T12:35:58.960Z,10.40
2018-04-22T12:36:58.936Z,9.30
2018-04-22T12:37:58.861Z,9.50
2018-04-22T12:38:58.832Z,8.10
2018-04-22T12:39:58.802Z,11.90
2018-04-22T12:40:58.768Z,9.90
2018-04-22T12:41:58.742Z,10.60
2018-04-22T12:42:58.710Z,11.20
2018-04-22T12:43:58.680Z,10.10
2018-04-22T12:44:58.657Z,10.20
2018-04-22T12:45:58.612Z,8.20
2018-04-22T12:46:58.587Z,10.50
2018-04-22T12:47:58.556Z,8.40
2018-04-22T12:48:58.523Z,9.30
2018-04-22T12:49:58.487Z,8.80
2018-04-22T12:50:58.453Z,12.50
2018-04-22T12:51:58.460Z,14.40
2018-04-22T12:52:58.428Z,8.80
2018-04-22T12:53:58.398Z,10.90
2018-04-22T12:54:58.331Z,9.40
2018-04-22T12:55:58.292Z,13.20